sensor_id;sensor_type;location;lat;lon;timestamp;pressure;altitude;pressure_sealevel;temperature;humidity
34241;BME280;20503;50.200;19.508;2022-12-20T00:01:29;102723.72;;;-1.00;100.00
34241;BME280;20503;50.200;19.508;2022-12-20T00:06:34;102733.53;;;-0.99;100.00
34241;BME280;20503;50.200;19.508;2022-12-20T00:11:43;102736.03;;;-0.96;100.00
34241;BME280;20503;50.200;19.508;2022-12-20T00:16:54;102737.00;;;-0.97;100.00
34241;BME280;20503;50.200;19.508;2022-12-20T00:22:04;102744.10;;;-0.96;100.00
34241;BME280;20503;50.200;19.508;2022-12-20T00:27:18;102740.47;;;-0.95;100.00
34241;BME280;20503;50.200;19.508;2022-12-20T00:32:30;102737.15;;;-1.00;100.00
34241;BME280;20503;50.200;19.508;2022-12-20T00:37:40;102723.72;;;-1.00;100.00
34241;BME280;20503;50.200;19.508;2022-12-20T00:42:50;102715.65;;;-1.00;100.00
34241;BME280;20503;50.200;19.508;2022-12-20T00:48:01;102712.82;;;-0.97;100.00
34241;BME280;20503;50.200;19.508;2022-12-20T00:53:13;102709.16;;;-0.96;100.00
34241;BME280;20503;50.200;19.508;2022-12-20T00:58:23;102718.01;;;-0.94;100.00
34241;BME280;20503;50.200;19.508;2022-12-20T01:03:33;102717.75;;;-0.89;100.00
34241;BME280;20503;50.200;19.508;2022-12-20T01:08:45;102703.45;;;-0.90;100.00
34241;BME280;20503;50.200;19.508;2022-12-20T01:13:58;102705.09;;;-0.87;100.00
34241;BME280;20503;50.200;19.508;2022-12-20T01:19:07;102688.85;;;-0.86;100.00
34241;BME280;20503;50.200;19.508;2022-12-20T01:24:18;102685.98;;;-0.83;100.00
34241;BME280;20503;50.200;19.508;2022-12-20T01:29:27;102669.70;;;-0.80;100.00
34241;BME280;20503;50.200;19.508;2022-12-20T01:34:38;102679.31;;;-0.76;100.00
34241;BME280;20503;50.200;19.508;2022-12-20T01:39:48;102691.53;;;-0.70;100.00
34241;BME280;20503;50.200;19.508;2022-12-20T01:44:59;102718.15;;;-0.66;100.00
34241;BME280;20503;50.200;19.508;2022-12-20T01:50:10;102703.13;;;-0.70;100.00
34241;BME280;20503;50.200;19.508;2022-12-20T01:55:24;102681.46;;;-0.67;100.00
34241;BME280;20503;50.200;19.508;2022-12-20T02:00:32;102671.31;;;-0.62;100.00
34241;BME280;20503;50.200;19.508;2022-12-20T02:05:44;102677.47;;;-0.60;100.00
34241;BME280;20503;50.200;19.508;2022-12-20T02:16:12;102654.03;;;-0.58;100.00
34241;BME280;20503;50.200;19.508;2022-12-20T02:36:57;102633.52;;;-0.45;100.00
34241;BME280;20503;50.200;19.508;2022-12-20T02:42:06;102647.55;;;-0.40;100.00
34241;BME280;20503;50.200;19.508;2022-12-20T02:47:12;102648.92;;;-0.33;100.00
34241;BME280;20503;50.200;19.508;2022-12-20T02:52:22;102647.09;;;-0.32;100.00
34241;BME280;20503;50.200;19.508;2022-12-20T02:57:37;102632.58;;;-0.30;100.00
34241;BME280;20503;50.200;19.508;2022-12-20T03:02:44;102622.79;;;-0.31;100.00
34241;BME280;20503;50.200;19.508;2022-12-20T03:08:00;102621.63;;;-0.27;100.00
34241;BME280;20503;50.200;19.508;2022-12-20T03:13:03;102652.06;;;-0.26;100.00
34241;BME280;20503;50.200;19.508;2022-12-20T03:18:14;102638.16;;;-0.33;100.00
34241;BME280;20503;50.200;19.508;2022-12-20T03:23:24;102637.83;;;-0.42;100.00
34241;BME280;20503;50.200;19.508;2022-12-20T03:28:35;102627.64;;;-0.51;100.00
34241;BME280;20503;50.200;19.508;2022-12-20T03:33:46;102608.59;;;-0.62;100.00
34241;BME280;20503;50.200;19.508;2022-12-20T03:38:56;102612.52;;;-0.68;100.00
34241;BME280;20503;50.200;19.508;2022-12-20T03:44:08;102630.36;;;-0.81;100.00
34241;BME280;20503;50.200;19.508;2022-12-20T03:49:18;102630.88;;;-0.90;100.00
34241;BME280;20503;50.200;19.508;2022-12-20T03:54:29;102613.30;;;-0.95;100.00
34241;BME280;20503;50.200;19.508;2022-12-20T03:59:40;102599.27;;;-1.00;100.00
34241;BME280;20503;50.200;19.508;2022-12-20T04:04:51;102603.19;;;-1.06;100.00
34241;BME280;20503;50.200;19.508;2022-12-20T04:10:01;102614.88;;;-1.07;100.00
34241;BME280;20503;50.200;19.508;2022-12-20T04:15:13;102614.63;;;-1.18;100.00
34241;BME280;20503;50.200;19.508;2022-12-20T04:20:23;102607.20;;;-1.13;100.00
34241;BME280;20503;50.200;19.508;2022-12-20T04:25:33;102615.14;;;-1.11;100.00
34241;BME280;20503;50.200;19.508;2022-12-20T04:30:44;102621.98;;;-1.06;100.00
34241;BME280;20503;50.200;19.508;2022-12-20T04:35:55;102624.85;;;-1.09;100.00
34241;BME280;20503;50.200;19.508;2022-12-20T04:41:06;102617.56;;;-1.07;100.00
34241;BME280;20503;50.200;19.508;2022-12-20T04:46:18;102607.86;;;-1.09;100.00
34241;BME280;20503;50.200;19.508;2022-12-20T04:51:29;102607.01;;;-1.10;100.00
34241;BME280;20503;50.200;19.508;2022-12-20T04:56:38;102620.70;;;-1.14;100.00
34241;BME280;20503;50.200;19.508;2022-12-20T05:01:49;102604.17;;;-1.22;100.00
34241;BME280;20503;50.200;19.508;2022-12-20T05:07:01;102609.63;;;-1.24;100.00
34241;BME280;20503;50.200;19.508;2022-12-20T05:12:11;102601.50;;;-1.22;100.00
34241;BME280;20503;50.200;19.508;2022-12-20T05:17:22;102611.17;;;-1.20;100.00
34241;BME280;20503;50.200;19.508;2022-12-20T05:22:32;102610.72;;;-0.97;100.00
34241;BME280;20503;50.200;19.508;2022-12-20T05:27:48;102588.73;;;-1.19;100.00
34241;BME280;20503;50.200;19.508;2022-12-20T05:32:54;102577.99;;;-1.19;100.00
34241;BME280;20503;50.200;19.508;2022-12-20T05:38:05;102602.86;;;-1.15;100.00
34241;BME280;20503;50.200;19.508;2022-12-20T05:43:17;102598.52;;;-1.18;100.00
34241;BME280;20503;50.200;19.508;2022-12-20T05:48:27;102596.53;;;-1.14;100.00
34241;BME280;20503;50.200;19.508;2022-12-20T05:53:38;102596.72;;;-1.17;100.00
34241;BME280;20503;50.200;19.508;2022-12-20T05:58:48;102594.40;;;-1.23;100.00
34241;BME280;20503;50.200;19.508;2022-12-20T06:03:59;102590.06;;;-1.26;100.00
34241;BME280;20503;50.200;19.508;2022-12-20T06:09:09;102585.52;;;-1.25;100.00
34241;BME280;20503;50.200;19.508;2022-12-20T06:14:20;102583.91;;;-1.28;100.00
34241;BME280;20503;50.200;19.508;2022-12-20T06:19:31;102582.52;;;-1.35;100.00
34241;BME280;20503;50.200;19.508;2022-12-20T06:24:43;102573.62;;;-1.35;100.00
34241;BME280;20503;50.200;19.508;2022-12-20T06:29:53;102554.05;;;-1.37;100.00
34241;BME280;20503;50.200;19.508;2022-12-20T06:35:05;102580.79;;;-1.36;100.00
34241;BME280;20503;50.200;19.508;2022-12-20T06:40:14;102571.19;;;-1.40;100.00
34241;BME280;20503;50.200;19.508;2022-12-20T06:45:25;102577.44;;;-1.39;100.00
34241;BME280;20503;50.200;19.508;2022-12-20T06:50:37;102587.23;;;-1.38;100.00
34241;BME280;20503;50.200;19.508;2022-12-20T06:55:47;102579.60;;;-1.46;100.00
34241;BME280;20503;50.200;19.508;2022-12-20T07:01:04;102567.54;;;-1.39;100.00
34241;BME280;20503;50.200;19.508;2022-12-20T07:06:08;102582.70;;;-1.38;100.00
34241;BME280;20503;50.200;19.508;2022-12-20T07:11:19;102585.64;;;-1.42;100.00
34241;BME280;20503;50.200;19.508;2022-12-20T07:16:30;102579.06;;;-1.37;100.00
34241;BME280;20503;50.200;19.508;2022-12-20T07:21:44;102584.50;;;-1.23;100.00
34241;BME280;20503;50.200;19.508;2022-12-20T07:26:51;102586.81;;;-1.17;100.00
34241;BME280;20503;50.200;19.508;2022-12-20T07:32:02;102588.45;;;-0.99;100.00
34241;BME280;20503;50.200;19.508;2022-12-20T07:37:13;102585.90;;;-0.86;100.00
34241;BME280;20503;50.200;19.508;2022-12-20T07:42:23;102592.66;;;-0.65;100.00
34241;BME280;20503;50.200;19.508;2022-12-20T07:47:34;102587.88;;;-0.46;100.00
34241;BME280;20503;50.200;19.508;2022-12-20T07:52:47;102585.00;;;-0.43;100.00
34241;BME280;20503;50.200;19.508;2022-12-20T07:58:01;102585.51;;;-0.23;100.00
34241;BME280;20503;50.200;19.508;2022-12-20T08:03:10;102576.56;;;-0.09;100.00
34241;BME280;20503;50.200;19.508;2022-12-20T08:08:19;102560.89;;;0.11;100.00
34241;BME280;20503;50.200;19.508;2022-12-20T08:13:31;102563.30;;;0.15;100.00
34241;BME280;20503;50.200;19.508;2022-12-20T08:18:40;102549.83;;;0.15;100.00
34241;BME280;20503;50.200;19.508;2022-12-20T08:23:50;102538.50;;;0.10;100.00
34241;BME280;20503;50.200;19.508;2022-12-20T08:29:01;102564.63;;;0.49;100.00
34241;BME280;20503;50.200;19.508;2022-12-20T08:34:11;102564.77;;;0.74;100.00
34241;BME280;20503;50.200;19.508;2022-12-20T08:39:22;102556.90;;;0.71;100.00
34241;BME280;20503;50.200;19.508;2022-12-20T08:44:35;102563.32;;;0.95;100.00
34241;BME280;20503;50.200;19.508;2022-12-20T08:49:44;102545.27;;;1.22;99.78
34241;BME280;20503;50.200;19.508;2022-12-20T08:54:55;102555.62;;;1.15;99.45
34241;BME280;20503;50.200;19.508;2022-12-20T09:00:06;102568.64;;;1.09;99.88
34241;BME280;20503;50.200;19.508;2022-12-20T09:05:18;102569.01;;;1.17;99.13
34241;BME280;20503;50.200;19.508;2022-12-20T09:10:27;102559.20;;;1.28;98.35
34241;BME280;20503;50.200;19.508;2022-12-20T09:15:39;102546.81;;;1.51;97.52
34241;BME280;20503;50.200;19.508;2022-12-20T09:20:48;102554.80;;;1.77;97.85
34241;BME280;20503;50.200;19.508;2022-12-20T09:26:05;102540.54;;;1.87;97.41
34241;BME280;20503;50.200;19.508;2022-12-20T09:31:13;102542.04;;;1.91;96.68
34241;BME280;20503;50.200;19.508;2022-12-20T09:36:22;102546.02;;;2.47;93.78
34241;BME280;20503;50.200;19.508;2022-12-20T09:41:37;102526.28;;;2.81;93.42
34241;BME280;20503;50.200;19.508;2022-12-20T09:46:44;102526.77;;;3.55;89.37
34241;BME280;20503;50.200;19.508;2022-12-20T09:52:03;102502.70;;;2.83;91.65
34241;BME280;20503;50.200;19.508;2022-12-20T10:02:21;102519.80;;;2.60;92.31
34241;BME280;20503;50.200;19.508;2022-12-20T10:07:38;102524.04;;;2.28;94.45
34241;BME280;20503;50.200;19.508;2022-12-20T10:23:16;102452.08;;;2.50;94.98
34241;BME280;20503;50.200;19.508;2022-12-20T10:28:29;102431.86;;;2.67;93.55
34241;BME280;20503;50.200;19.508;2022-12-20T10:33:33;102422.09;;;2.77;92.82
34241;BME280;20503;50.200;19.508;2022-12-20T10:43:53;102444.96;;;2.49;93.25
34241;BME280;20503;50.200;19.508;2022-12-20T10:48:56;102438.73;;;2.13;94.58
34241;BME280;20503;50.200;19.508;2022-12-20T10:54:09;102440.39;;;2.26;94.01
34241;BME280;20503;50.200;19.508;2022-12-20T11:04:36;102422.94;;;2.19;96.39
34241;BME280;20503;50.200;19.508;2022-12-20T11:09:50;102406.73;;;2.19;97.04
34241;BME280;20503;50.200;19.508;2022-12-20T11:30:48;102381.04;;;1.90;98.12
34241;BME280;20503;50.200;19.508;2022-12-20T11:36:02;102359.55;;;1.89;98.11
34241;BME280;20503;50.200;19.508;2022-12-20T11:46:33;102364.02;;;1.78;99.58
34241;BME280;20503;50.200;19.508;2022-12-20T11:56:51;102361.10;;;2.04;99.08
34241;BME280;20503;50.200;19.508;2022-12-20T12:07:19;102355.84;;;2.02;97.29
34241;BME280;20503;50.200;19.508;2022-12-20T12:12:32;102335.95;;;2.03;96.72
34241;BME280;20503;50.200;19.508;2022-12-20T12:17:48;102339.66;;;2.13;97.44
34241;BME280;20503;50.200;19.508;2022-12-20T12:22:56;102341.17;;;2.17;97.79
34241;BME280;20503;50.200;19.508;2022-12-20T12:28:02;102330.23;;;2.19;97.88
34241;BME280;20503;50.200;19.508;2022-12-20T12:33:14;102332.99;;;2.30;97.85
34241;BME280;20503;50.200;19.508;2022-12-20T12:43:40;102352.25;;;2.25;97.93
34241;BME280;20503;50.200;19.508;2022-12-20T12:48:49;102337.20;;;2.10;98.09
34241;BME280;20503;50.200;19.508;2022-12-20T12:54:42;102341.36;;;2.03;97.23
34241;BME280;20503;50.200;19.508;2022-12-20T13:04:52;102324.18;;;1.81;99.05
34241;BME280;20503;50.200;19.508;2022-12-20T13:09:38;102306.60;;;1.76;99.34
34241;BME280;20503;50.200;19.508;2022-12-20T13:14:47;102304.03;;;1.74;100.00
34241;BME280;20503;50.200;19.508;2022-12-20T13:19:54;102301.77;;;1.68;100.00
34241;BME280;20503;50.200;19.508;2022-12-20T13:24:59;102304.70;;;1.65;100.00
34241;BME280;20503;50.200;19.508;2022-12-20T13:35:27;102304.70;;;1.65;100.00
34241;BME280;20503;50.200;19.508;2022-12-20T13:45:46;102318.11;;;1.67;100.00
34241;BME280;20503;50.200;19.508;2022-12-20T13:50:52;102316.99;;;1.69;100.00
34241;BME280;20503;50.200;19.508;2022-12-20T13:55:55;102318.49;;;1.50;100.00
34241;BME280;20503;50.200;19.508;2022-12-20T14:01:05;102338.55;;;1.46;100.00
34241;BME280;20503;50.200;19.508;2022-12-20T14:06:11;102328.97;;;1.42;100.00
34241;BME280;20503;50.200;19.508;2022-12-20T14:11:21;102319.20;;;1.28;100.00
34241;BME280;20503;50.200;19.508;2022-12-20T14:16:29;102328.07;;;1.18;100.00
34241;BME280;20503;50.200;19.508;2022-12-20T14:21:38;102335.09;;;1.08;100.00
34241;BME280;20503;50.200;19.508;2022-12-20T14:26:49;102328.29;;;1.02;100.00
34241;BME280;20503;50.200;19.508;2022-12-20T14:31:53;102335.85;;;0.97;100.00
34241;BME280;20503;50.200;19.508;2022-12-20T14:42:13;102340.16;;;0.87;100.00
34241;BME280;20503;50.200;19.508;2022-12-20T14:47:23;102339.72;;;0.81;100.00
34241;BME280;20503;50.200;19.508;2022-12-20T14:52:34;102333.94;;;0.74;100.00
34241;BME280;20503;50.200;19.508;2022-12-20T14:57:44;102331.63;;;0.81;100.00
34241;BME280;20503;50.200;19.508;2022-12-20T15:08:16;102317.77;;;0.74;100.00
34241;BME280;20503;50.200;19.508;2022-12-20T15:13:21;102307.10;;;0.73;100.00
34241;BME280;20503;50.200;19.508;2022-12-20T15:18:24;102311.51;;;0.74;100.00
34241;BME280;20503;50.200;19.508;2022-12-20T15:23:27;102318.18;;;0.68;100.00
34241;BME280;20503;50.200;19.508;2022-12-20T15:28:34;102310.42;;;0.64;100.00
34241;BME280;20503;50.200;19.508;2022-12-20T15:33:45;102295.79;;;0.68;100.00
34241;BME280;20503;50.200;19.508;2022-12-20T15:38:57;102306.56;;;0.68;100.00
34241;BME280;20503;50.200;19.508;2022-12-20T15:44:13;102317.65;;;0.63;100.00
34241;BME280;20503;50.200;19.508;2022-12-20T15:54:36;102301.36;;;0.65;100.00
34241;BME280;20503;50.200;19.508;2022-12-20T15:59:39;102286.52;;;0.59;100.00
34241;BME280;20503;50.200;19.508;2022-12-20T16:04:49;102279.51;;;0.57;100.00
34241;BME280;20503;50.200;19.508;2022-12-20T16:10:00;102291.26;;;0.56;100.00
34241;BME280;20503;50.200;19.508;2022-12-20T16:15:19;102297.49;;;0.56;100.00
34241;BME280;20503;50.200;19.508;2022-12-20T16:20:22;102294.17;;;0.53;100.00
34241;BME280;20503;50.200;19.508;2022-12-20T16:25:34;102293.42;;;0.51;100.00
34241;BME280;20503;50.200;19.508;2022-12-20T16:30:43;102281.12;;;0.47;100.00
34241;BME280;20503;50.200;19.508;2022-12-20T16:35:54;102282.30;;;0.43;100.00
34241;BME280;20503;50.200;19.508;2022-12-20T16:41:13;102274.67;;;0.37;100.00
34241;BME280;20503;50.200;19.508;2022-12-20T16:46:18;102291.36;;;0.42;100.00
34241;BME280;20503;50.200;19.508;2022-12-20T16:51:31;102297.05;;;0.37;100.00
34241;BME280;20503;50.200;19.508;2022-12-20T16:56:37;102280.67;;;0.28;100.00
34241;BME280;20503;50.200;19.508;2022-12-20T17:01:48;102260.55;;;0.21;100.00
34241;BME280;20503;50.200;19.508;2022-12-20T17:06:58;102275.52;;;0.25;100.00
34241;BME280;20503;50.200;19.508;2022-12-20T17:12:15;102279.48;;;0.19;100.00
34241;BME280;20503;50.200;19.508;2022-12-20T17:17:20;102240.92;;;0.06;100.00
34241;BME280;20503;50.200;19.508;2022-12-20T17:22:30;102265.36;;;0.16;100.00
34241;BME280;20503;50.200;19.508;2022-12-20T17:27:42;102244.27;;;0.10;100.00
34241;BME280;20503;50.200;19.508;2022-12-20T17:32:53;102256.00;;;0.09;100.00
34241;BME280;20503;50.200;19.508;2022-12-20T17:38:04;102264.83;;;0.11;100.00
34241;BME280;20503;50.200;19.508;2022-12-20T17:43:14;102267.12;;;0.17;100.00
34241;BME280;20503;50.200;19.508;2022-12-20T17:48:26;102260.20;;;0.13;100.00
34241;BME280;20503;50.200;19.508;2022-12-20T17:53:36;102248.28;;;0.17;100.00
34241;BME280;20503;50.200;19.508;2022-12-20T17:58:47;102235.66;;;0.17;100.00
34241;BME280;20503;50.200;19.508;2022-12-20T18:04:03;102256.88;;;0.22;100.00
34241;BME280;20503;50.200;19.508;2022-12-20T18:09:15;102252.77;;;0.16;100.00
34241;BME280;20503;50.200;19.508;2022-12-20T18:14:19;102223.49;;;0.12;100.00
34241;BME280;20503;50.200;19.508;2022-12-20T18:19:29;102231.34;;;0.15;100.00
34241;BME280;20503;50.200;19.508;2022-12-20T18:24:40;102225.86;;;0.16;100.00
34241;BME280;20503;50.200;19.508;2022-12-20T18:29:53;102227.68;;;0.16;100.00
34241;BME280;20503;50.200;19.508;2022-12-20T18:35:02;102229.63;;;0.14;100.00
34241;BME280;20503;50.200;19.508;2022-12-20T18:40:12;102210.78;;;0.14;100.00
34241;BME280;20503;50.200;19.508;2022-12-20T18:45:25;102209.27;;;0.10;100.00
34241;BME280;20503;50.200;19.508;2022-12-20T18:50:38;102205.09;;;0.06;100.00
34241;BME280;20503;50.200;19.508;2022-12-20T18:55:45;102210.25;;;0.09;100.00
34241;BME280;20503;50.200;19.508;2022-12-20T19:00:57;102182.90;;;0.15;100.00
34241;BME280;20503;50.200;19.508;2022-12-20T19:06:09;102190.57;;;0.08;100.00
34241;BME280;20503;50.200;19.508;2022-12-20T19:11:22;102160.09;;;0.08;100.00
34241;BME280;20503;50.200;19.508;2022-12-20T19:16:28;102183.12;;;0.12;100.00
34241;BME280;20503;50.200;19.508;2022-12-20T19:21:40;102197.33;;;0.14;100.00
34241;BME280;20503;50.200;19.508;2022-12-20T19:26:51;102191.09;;;0.13;100.00
34241;BME280;20503;50.200;19.508;2022-12-20T19:32:00;102204.21;;;0.05;100.00
34241;BME280;20503;50.200;19.508;2022-12-20T19:37:12;102203.02;;;-0.15;100.00
34241;BME280;20503;50.200;19.508;2022-12-20T19:42:23;102190.92;;;-0.35;100.00
34241;BME280;20503;50.200;19.508;2022-12-20T19:47:34;102171.63;;;-0.54;100.00
34241;BME280;20503;50.200;19.508;2022-12-20T19:52:45;102175.71;;;-0.61;100.00
34241;BME280;20503;50.200;19.508;2022-12-20T19:57:54;102171.19;;;-0.60;100.00
34241;BME280;20503;50.200;19.508;2022-12-20T20:03:06;102160.85;;;-0.66;100.00
34241;BME280;20503;50.200;19.508;2022-12-20T20:08:17;102162.80;;;-0.68;100.00
34241;BME280;20503;50.200;19.508;2022-12-20T20:13:29;102161.37;;;-0.74;100.00
34241;BME280;20503;50.200;19.508;2022-12-20T20:18:38;102165.75;;;-0.85;100.00
34241;BME280;20503;50.200;19.508;2022-12-20T20:23:49;102157.94;;;-1.02;100.00
34241;BME280;20503;50.200;19.508;2022-12-20T20:29:01;102157.48;;;-1.09;100.00
34241;BME280;20503;50.200;19.508;2022-12-20T20:34:15;102159.78;;;-1.17;100.00
34241;BME280;20503;50.200;19.508;2022-12-20T20:39:21;102158.47;;;-1.24;100.00
34241;BME280;20503;50.200;19.508;2022-12-20T20:44:33;102158.47;;;-1.24;100.00
34241;BME280;20503;50.200;19.508;2022-12-20T20:49:43;102143.33;;;-1.25;100.00
34241;BME280;20503;50.200;19.508;2022-12-20T20:54:53;102139.77;;;-1.25;100.00
34241;BME280;20503;50.200;19.508;2022-12-20T21:00:05;102139.13;;;-1.29;100.00
34241;BME280;20503;50.200;19.508;2022-12-20T21:05:14;102149.40;;;-1.35;100.00
34241;BME280;20503;50.200;19.508;2022-12-20T21:10:27;102133.38;;;-1.37;100.00
34241;BME280;20503;50.200;19.508;2022-12-20T21:15:37;102130.34;;;-1.45;100.00
34241;BME280;20503;50.200;19.508;2022-12-20T21:20:48;102112.70;;;-1.49;100.00
34241;BME280;20503;50.200;19.508;2022-12-20T21:25:57;102099.48;;;-1.52;100.00
34241;BME280;20503;50.200;19.508;2022-12-20T21:31:13;102088.74;;;-1.52;100.00
34241;BME280;20503;50.200;19.508;2022-12-20T21:36:20;102080.48;;;-1.49;100.00
34241;BME280;20503;50.200;19.508;2022-12-20T21:41:31;102084.13;;;-1.50;100.00
34241;BME280;20503;50.200;19.508;2022-12-20T21:46:41;102068.81;;;-1.48;100.00
34241;BME280;20503;50.200;19.508;2022-12-20T21:51:53;102066.13;;;-1.48;100.00
34241;BME280;20503;50.200;19.508;2022-12-20T21:57:04;102056.45;;;-1.50;100.00
34241;BME280;20503;50.200;19.508;2022-12-20T22:02:13;102057.49;;;-1.53;100.00
34241;BME280;20503;50.200;19.508;2022-12-20T22:07:26;102039.13;;;-1.59;100.00
34241;BME280;20503;50.200;19.508;2022-12-20T22:12:35;102044.49;;;-1.59;100.00
34241;BME280;20503;50.200;19.508;2022-12-20T22:17:46;102038.58;;;-1.64;100.00
34241;BME280;20503;50.200;19.508;2022-12-20T22:22:56;102045.20;;;-1.69;100.00
34241;BME280;20503;50.200;19.508;2022-12-20T22:28:08;102044.58;;;-1.60;100.00
34241;BME280;20503;50.200;19.508;2022-12-20T22:33:18;102024.84;;;-1.59;100.00
34241;BME280;20503;50.200;19.508;2022-12-20T22:38:29;102011.32;;;-1.58;100.00
34241;BME280;20503;50.200;19.508;2022-12-20T22:43:41;101997.28;;;-1.49;100.00
34241;BME280;20503;50.200;19.508;2022-12-20T22:48:52;102003.52;;;-1.48;100.00
34241;BME280;20503;50.200;19.508;2022-12-20T22:54:02;101990.64;;;-1.43;100.00
34241;BME280;20503;50.200;19.508;2022-12-20T22:59:12;102000.79;;;-1.34;100.00
34241;BME280;20503;50.200;19.508;2022-12-20T23:04:24;101991.85;;;-1.35;100.00
34241;BME280;20503;50.200;19.508;2022-12-20T23:09:35;101998.87;;;-1.20;100.00
34241;BME280;20503;50.200;19.508;2022-12-20T23:14:44;101991.16;;;-1.12;100.00
34241;BME280;20503;50.200;19.508;2022-12-20T23:20:00;101966.78;;;-1.09;100.00
34241;BME280;20503;50.200;19.508;2022-12-20T23:25:17;101967.54;;;-1.07;100.00
34241;BME280;20503;50.200;19.508;2022-12-20T23:30:24;101955.91;;;-1.07;100.00
34241;BME280;20503;50.200;19.508;2022-12-20T23:35:28;101956.26;;;-1.12;100.00
34241;BME280;20503;50.200;19.508;2022-12-20T23:40:39;101933.67;;;-1.22;100.00
34241;BME280;20503;50.200;19.508;2022-12-20T23:45:51;101932.71;;;-1.21;100.00
34241;BME280;20503;50.200;19.508;2022-12-20T23:51:00;101907.04;;;-1.25;100.00
34241;BME280;20503;50.200;19.508;2022-12-20T23:56:19;101943.88;;;-1.27;100.00
